Time;durP1;ratioP1;P1;durP2;ratioP2;P2;SDS_P1;SDS_P2;PMS_P1;PMS_P2;Temp;Humidity;BMP_temperature;BMP_pressure;BME280_temperature;BME280_humidity;BME280_pressure;Samples;Min_cycle;Max_cycle;Signal;HPM_P1;HPM_P2
2023/09/27 00:02:00;;;;;;;22.30;15.70;;;19.40;99.90;;;;;;5000685;28;20127;-79
2023/09/27 00:04:26;;;;;;;18.73;15.18;;;19.20;99.90;;;;;;5018224;28;20034;-79
2023/09/27 00:06:51;;;;;;;23.58;16.55;;;19.30;99.90;;;;;;5018296;28;20042;-79
2023/09/27 00:09:17;;;;;;;19.00;16.60;;;19.40;99.90;;;;;;5001046;28;20065;-79
2023/09/27 00:11:43;;;;;;;18.92;16.13;;;19.20;99.90;;;;;;4983591;28;20683;-79
2023/09/27 00:14:09;;;;;;;22.20;17.60;;;19.30;99.90;;;;;;5018362;28;20601;-79
2023/09/27 00:16:35;;;;;;;17.73;15.20;;;19.20;99.90;;;;;;5000281;28;20053;-79
2023/09/27 00:19:01;;;;;;;20.83;16.10;;;19.40;99.90;;;;;;5000662;28;20393;-79
2023/09/27 00:21:27;;;;;;;19.85;16.55;;;19.20;99.90;;;;;;5018130;28;20037;-79
2023/09/27 00:23:52;;;;;;;17.15;14.35;;;19.40;99.90;;;;;;5017753;28;20461;-79
2023/09/27 00:26:18;;;;;;;18.30;15.20;;;19.20;99.90;;;;;;5017634;28;20120;-80
2023/09/27 00:28:44;;;;;;;21.70;16.60;;;19.30;99.90;;;;;;4999932;28;20048;-79
2023/09/27 00:31:09;;;;;;;20.50;15.50;;;19.20;99.90;;;;;;5000840;28;20045;-80
2023/09/27 00:33:35;;;;;;;17.63;14.82;;;19.40;99.90;;;;;;5017828;28;20494;-79
2023/09/27 00:36:00;;;;;;;19.80;17.70;;;19.30;99.90;;;;;;5018096;28;20117;-79
2023/09/27 00:38:26;;;;;;;18.30;15.30;;;19.00;99.90;;;;;;5018293;28;20038;-78
2023/09/27 00:40:52;;;;;;;20.30;17.23;;;19.40;99.90;;;;;;5000040;28;20037;-79
2023/09/27 00:43:24;;;;;;;20.33;17.55;;;19.20;99.90;;;;;;5017673;28;20104;-79
2023/09/27 00:45:51;;;;;;;20.55;17.67;;;19.00;99.90;;;;;;5018202;28;20054;-79
2023/09/27 00:48:17;;;;;;;18.90;16.50;;;19.20;99.90;;;;;;5018597;28;20081;-79
2023/09/27 00:50:43;;;;;;;23.13;17.77;;;;;;;;;;5017745;28;20038;-78
2023/09/27 00:53:08;;;;;;;20.83;16.65;;;19.30;99.90;;;;;;5018352;28;20638;-79
2023/09/27 00:55:35;;;;;;;21.95;17.92;;;19.30;99.90;;;;;;5018428;28;20038;-79
2023/09/27 00:58:02;;;;;;;19.45;16.48;;;19.00;99.90;;;;;;5017616;28;20108;-79
2023/09/27 01:00:29;;;;;;;18.20;15.85;;;19.40;99.90;;;;;;5017501;28;20053;-79
2023/09/27 01:02:55;;;;;;;20.83;16.67;;;19.20;99.90;;;;;;5000614;28;20089;-79
2023/09/27 01:05:20;;;;;;;20.50;17.10;;;18.90;99.90;;;;;;5018547;28;20088;-79
2023/09/27 01:07:46;;;;;;;19.05;16.63;;;19.00;99.90;;;;;;5019628;28;20038;-78
2023/09/27 01:10:12;;;;;;;23.40;17.80;;;18.90;99.90;;;;;;5030545;28;20060;-79
2023/09/27 01:12:37;;;;;;;24.35;19.05;;;19.20;99.90;;;;;;5029638;28;20034;-80
2023/09/27 01:15:05;;;;;;;20.40;18.20;;;19.30;99.90;;;;;;4997067;28;20065;-78
2023/09/27 01:17:30;;;;;;;21.90;17.17;;;19.20;99.90;;;;;;5012968;28;20038;-79
2023/09/27 01:19:56;;;;;;;22.50;18.08;;;19.10;99.90;;;;;;4983965;28;20052;-78
2023/09/27 01:22:21;;;;;;;20.13;17.55;;;19.00;99.90;;;;;;5000015;28;20041;-79
2023/09/27 01:24:50;;;;;;;19.52;16.92;;;19.00;99.90;;;;;;4983851;28;20101;-78
2023/09/27 01:27:18;;;;;;;23.08;18.20;;;19.00;99.90;;;;;;5017687;28;20034;-79
2023/09/27 01:29:43;;;;;;;20.35;16.92;;;19.00;99.90;;;;;;5017226;28;20160;-79
2023/09/27 01:32:09;;;;;;;21.98;16.50;;;18.90;99.90;;;;;;5017665;28;20088;-79
2023/09/27 01:34:35;;;;;;;22.35;17.70;;;;;;;;;;5018073;28;20205;-79
2023/09/27 01:37:01;;;;;;;22.85;16.90;;;18.90;99.90;;;;;;5016834;28;20053;-79
2023/09/27 01:39:28;;;;;;;21.98;16.63;;;18.80;99.90;;;;;;4990182;28;20101;-79
2023/09/27 01:41:53;;;;;;;26.33;18.58;;;18.90;99.90;;;;;;5026915;28;20038;-79
2023/09/27 01:44:19;;;;;;;17.15;15.25;;;;;;;;;;5025592;28;20064;-79
2023/09/27 01:46:45;;;;;;;18.85;15.60;;;18.80;99.90;;;;;;4992512;28;20070;-79
2023/09/27 01:49:10;;;;;;;21.05;16.67;;;19.00;99.90;;;;;;4985381;28;20041;-79
2023/09/27 01:51:36;;;;;;;20.08;16.65;;;18.90;99.90;;;;;;5000729;28;20061;-79
2023/09/27 01:54:02;;;;;;;19.17;17.17;;;;;;;;;;5004214;28;20034;-79
2023/09/27 01:56:28;;;;;;;19.17;17.08;;;;;;;;;;5014093;28;20049;-78
2023/09/27 01:58:54;;;;;;;18.92;16.92;;;;;;;;;;4998413;28;20145;-78
2023/09/27 02:01:20;;;;;;;20.30;18.10;;;18.60;99.90;;;;;;5011692;28;20436;-79
2023/09/27 02:03:45;;;;;;;22.52;17.88;;;19.00;99.90;;;;;;4984762;28;20038;-79
2023/09/27 02:06:11;;;;;;;19.60;17.20;;;18.70;99.90;;;;;;4997922;28;20136;-80
2023/09/27 02:08:37;;;;;;;22.05;16.50;;;18.70;99.90;;;;;;4981263;28;20046;-79
2023/09/27 02:11:03;;;;;;;20.35;17.77;;;;;;;;;;4983566;28;20049;-78
2023/09/27 02:13:28;;;;;;;19.40;16.27;;;18.70;99.90;;;;;;5000735;28;20046;-78
2023/09/27 02:15:55;;;;;;;22.75;18.42;;;18.80;99.90;;;;;;4986241;28;20042;-79
2023/09/27 02:18:21;;;;;;;19.20;16.98;;;18.70;99.90;;;;;;4985556;28;20046;-78
2023/09/27 02:20:46;;;;;;;20.75;16.95;;;18.70;99.90;;;;;;5001315;28;20060;-78
2023/09/27 02:23:12;;;;;;;20.70;17.35;;;18.80;99.90;;;;;;4985238;28;20096;-79
2023/09/27 02:25:39;;;;;;;21.08;16.75;;;18.60;99.90;;;;;;5001794;28;20576;-79
2023/09/27 02:28:06;;;;;;;22.77;18.80;;;18.80;99.90;;;;;;4986060;28;20049;-79
2023/09/27 02:30:32;;;;;;;25.48;18.63;;;18.70;99.90;;;;;;4985373;28;20084;-79
2023/09/27 02:32:58;;;;;;;20.58;16.58;;;18.50;99.90;;;;;;4985735;28;20034;-79
2023/09/27 02:35:23;;;;;;;20.55;17.55;;;18.60;99.90;;;;;;5001990;28;20124;-78
2023/09/27 02:37:49;;;;;;;21.45;18.75;;;18.80;99.90;;;;;;5019697;28;20052;-79
2023/09/27 02:40:15;;;;;;;22.05;17.40;;;18.40;99.90;;;;;;4985763;28;20038;-79
2023/09/27 02:42:46;;;;;;;24.25;17.17;;;18.80;99.90;;;;;;5001826;28;20497;-79
2023/09/27 02:45:12;;;;;;;18.38;16.42;;;18.50;99.90;;;;;;4985119;28;20060;-78
2023/09/27 02:47:39;;;;;;;19.35;16.80;;;18.60;99.90;;;;;;5018756;28;20452;-78
2023/09/27 02:50:09;;;;;;;23.05;18.30;;;18.70;99.90;;;;;;5002081;28;20045;-79
2023/09/27 02:52:35;;;;;;;20.92;17.77;;;18.60;99.90;;;;;;4985395;28;20049;-79
2023/09/27 02:55:01;;;;;;;23.30;17.20;;;18.30;99.90;;;;;;5001521;28;20125;-79
2023/09/27 02:57:26;;;;;;;18.50;16.48;;;18.30;99.90;;;;;;5001224;28;20040;-79
2023/09/27 02:59:52;;;;;;;25.58;18.08;;;18.70;99.90;;;;;;4986065;28;20046;-79
2023/09/27 03:02:20;;;;;;;20.33;17.83;;;18.20;99.90;;;;;;5002299;28;20049;-79
2023/09/27 03:04:47;;;;;;;21.83;18.38;;;18.60;99.90;;;;;;4985901;28;20107;-79
2023/09/27 03:07:14;;;;;;;21.10;18.45;;;;;;;;;;4985767;28;20430;-78
2023/09/27 03:09:39;;;;;;;21.40;18.13;;;18.40;99.90;;;;;;4986090;28;20048;-79
2023/09/27 03:12:06;;;;;;;23.65;19.40;;;18.60;99.90;;;;;;4999086;28;20128;-79
2023/09/27 03:14:32;;;;;;;19.65;17.58;;;18.30;99.90;;;;;;4999175;28;20061;-79
2023/09/27 03:16:59;;;;;;;24.50;17.30;;;18.30;99.90;;;;;;4998731;28;20057;-79
2023/09/27 03:19:25;;;;;;;18.45;16.23;;;18.40;99.90;;;;;;4994174;28;20528;-78
2023/09/27 03:21:51;;;;;;;21.98;17.88;;;18.60;99.90;;;;;;4993656;28;20048;-78
2023/09/27 03:24:17;;;;;;;22.88;18.27;;;18.20;99.90;;;;;;4995130;28;20033;-79
2023/09/27 03:26:43;;;;;;;18.73;16.25;;;18.40;99.90;;;;;;4992559;28;20050;-80
2023/09/27 03:29:09;;;;;;;22.08;17.45;;;18.20;99.90;;;;;;5013582;28;20068;-79
2023/09/27 03:31:34;;;;;;;20.30;16.92;;;18.40;99.90;;;;;;5007516;28;20046;-77
2023/09/27 03:34:00;;;;;;;20.65;16.80;;;18.20;99.90;;;;;;4991117;28;20053;-81
2023/09/27 03:36:26;;;;;;;20.83;18.00;;;;;;;;;;4998725;28;20413;-78
2023/09/27 03:38:52;;;;;;;19.02;16.30;;;;;;;;;;4995014;28;20078;-78
2023/09/27 03:41:18;;;;;;;19.35;17.30;;;18.20;99.90;;;;;;4998713;28;20084;-79
2023/09/27 03:43:44;;;;;;;21.38;17.40;;;18.30;99.90;;;;;;5020230;28;20121;-79
2023/09/27 03:46:11;;;;;;;20.90;18.15;;;18.30;99.90;;;;;;4992954;28;20043;-79
2023/09/27 03:48:37;;;;;;;21.67;18.20;;;;;;;;;;4972255;28;20053;-79
2023/09/27 03:51:03;;;;;;;19.15;17.02;;;;;;;;;;4985061;28;20421;-77
2023/09/27 03:53:29;;;;;;;20.40;16.83;;;;;;;;;;4985580;28;20042;-77
2023/09/27 03:55:56;;;;;;;20.38;17.27;;;;;;;;;;4982849;28;20621;-77
2023/09/27 03:58:21;;;;;;;21.58;17.92;;;17.80;99.90;;;;;;4977765;28;20077;-77
2023/09/27 04:00:47;;;;;;;19.75;17.23;;;18.10;99.90;;;;;;4961320;28;20038;-78
2023/09/27 04:03:13;;;;;;;21.55;19.30;;;18.00;99.90;;;;;;4977025;28;20050;-77
2023/09/27 04:05:38;;;;;;;23.08;19.02;;;18.10;99.90;;;;;;4976732;28;20039;-77
2023/09/27 04:08:04;;;;;;;20.55;17.67;;;18.10;99.90;;;;;;4976705;28;20038;-77
2023/09/27 04:10:31;;;;;;;21.55;18.90;;;;;;;;;;4976113;28;20475;-77
2023/09/27 04:12:57;;;;;;;23.50;18.83;;;18.10;99.90;;;;;;4977355;28;20042;-77
2023/09/27 04:15:23;;;;;;;22.77;20.08;;;18.00;99.90;;;;;;4976862;28;20169;-77
2023/09/27 04:17:48;;;;;;;27.58;20.38;;;17.80;99.90;;;;;;4976840;28;20053;-77
2023/09/27 04:20:16;;;;;;;22.08;19.50;;;;;;;;;;4976721;28;20034;-77
2023/09/27 04:22:43;;;;;;;25.15;20.08;;;18.10;99.90;;;;;;4961153;28;20125;-78
2023/09/27 04:25:12;;;;;;;22.42;18.58;;;18.00;99.90;;;;;;4976359;28;20509;-77
2023/09/27 04:27:39;;;;;;;19.92;17.77;;;18.00;99.90;;;;;;4960486;28;20046;-77
2023/09/27 04:30:11;;;;;;;23.38;18.60;;;18.20;99.90;;;;;;4975640;28;20050;-77
2023/09/27 04:32:42;;;;;;;26.50;20.27;;;17.90;99.90;;;;;;4960397;28;20096;-77
2023/09/27 04:35:08;;;;;;;23.20;18.85;;;18.00;99.90;;;;;;4993903;28;20054;-77
2023/09/27 04:37:38;;;;;;;26.08;21.38;;;17.70;99.90;;;;;;4976177;28;20038;-77
2023/09/27 04:40:17;;;;;;;22.27;18.95;;;18.00;99.90;;;;;;4976055;28;20041;-77
2023/09/27 04:42:44;;;;;;;23.02;19.17;;;17.70;99.90;;;;;;4976556;28;20116;-77
2023/09/27 04:45:12;;;;;;;23.48;18.98;;;18.00;99.90;;;;;;4960107;28;20038;-77
2023/09/27 04:47:39;;;;;;;23.40;19.50;;;17.90;99.90;;;;;;4975530;28;20088;-77
2023/09/27 04:50:09;;;;;;;22.48;19.45;;;17.80;99.90;;;;;;4960033;28;20042;-77
2023/09/27 04:52:36;;;;;;;22.95;19.35;;;17.70;99.90;;;;;;4960146;28;20074;-77
2023/09/27 04:55:02;;;;;;;23.17;20.15;;;;;;;;;;4976436;28;20042;-77
2023/09/27 04:57:27;;;;;;;22.05;19.00;;;17.60;99.90;;;;;;4976012;28;20046;-77
2023/09/27 04:59:53;;;;;;;25.63;19.92;;;17.80;99.90;;;;;;4959679;28;20038;-77
2023/09/27 05:02:20;;;;;;;26.17;21.17;;;17.90;99.90;;;;;;4975911;28;20096;-77
2023/09/27 05:04:47;;;;;;;28.58;20.55;;;17.80;99.90;;;;;;4976098;28;20039;-77
2023/09/27 05:07:16;;;;;;;21.67;19.38;;;17.60;99.90;;;;;;4976028;28;20046;-77
2023/09/27 05:09:42;;;;;;;25.48;21.45;;;;;;;;;;4976731;28;20046;-77
2023/09/27 05:12:08;;;;;;;24.40;19.48;;;17.40;99.90;;;;;;4960394;28;20417;-77
2023/09/27 05:14:34;;;;;;;22.65;19.35;;;17.70;99.90;;;;;;4975799;28;20136;-77
2023/09/27 05:16:59;;;;;;;25.25;20.92;;;17.50;99.90;;;;;;4975618;28;20134;-77
2023/09/27 05:19:25;;;;;;;25.10;22.02;;;17.90;99.90;;;;;;4959299;28;20034;-77
2023/09/27 05:21:51;;;;;;;24.15;20.17;;;;;;;;;;4975622;28;20490;-77
2023/09/27 05:24:17;;;;;;;26.50;20.60;;;;;;;;;;4975150;28;20056;-77
2023/09/27 05:26:43;;;;;;;24.20;19.90;;;17.60;99.90;;;;;;4975254;28;20038;-77
2023/09/27 05:29:15;;;;;;;24.52;20.17;;;17.60;99.90;;;;;;4959232;28;20728;-77
2023/09/27 05:31:41;;;;;;;34.05;24.25;;;17.50;99.90;;;;;;4991930;28;20042;-77
2023/09/27 05:34:07;;;;;;;23.15;20.63;;;17.90;99.90;;;;;;4959249;28;20502;-77
2023/09/27 05:36:33;;;;;;;23.33;20.58;;;17.80;99.90;;;;;;4975350;28;20125;-78
2023/09/27 05:39:02;;;;;;;26.70;20.65;;;17.90;99.90;;;;;;4975259;28;20035;-78
2023/09/27 05:41:28;;;;;;;29.05;21.13;;;17.70;99.90;;;;;;4965203;28;20035;-77
2023/09/27 05:43:53;;;;;;;26.10;20.38;;;17.60;99.90;;;;;;4983928;28;20038;-77
2023/09/27 05:46:19;;;;;;;27.30;22.17;;;17.80;99.90;;;;;;4969123;28;20088;-77
2023/09/27 05:48:44;;;;;;;28.42;22.83;;;17.90;99.90;;;;;;4994430;28;20034;-77
2023/09/27 05:51:10;;;;;;;25.50;21.65;;;18.00;99.90;;;;;;5012277;28;20143;-78
2023/09/27 05:53:36;;;;;;;26.42;21.15;;;18.00;99.90;;;;;;4994453;28;20045;-77
2023/09/27 05:56:03;;;;;;;27.50;23.08;;;;;;;;;;4994373;28;20571;-77
2023/09/27 05:58:34;;;;;;;26.58;23.10;;;17.60;99.90;;;;;;4994503;28;20045;-78
2023/09/27 06:01:00;;;;;;;35.17;23.40;;;18.20;99.90;;;;;;4994868;28;20445;-78
2023/09/27 06:03:26;;;;;;;28.40;22.92;;;17.80;99.90;;;;;;4994278;28;20034;-77
2023/09/27 06:05:52;;;;;;;30.25;23.40;;;17.70;99.90;;;;;;4994375;28;20088;-77
2023/09/27 06:08:17;;;;;;;30.13;23.70;;;18.10;99.90;;;;;;4978265;28;20045;-77
2023/09/27 06:10:43;;;;;;;26.02;22.45;;;;;;;;;;4974715;28;20046;-78
2023/09/27 06:13:10;;;;;;;26.25;23.08;;;;;;;;;;4981693;28;20050;-77
2023/09/27 06:15:36;;;;;;;33.42;25.67;;;17.90;99.90;;;;;;4974792;28;20046;-77
2023/09/27 06:18:03;;;;;;;27.40;22.90;;;;;;;;;;4974860;28;20096;-77
2023/09/27 06:20:30;;;;;;;30.30;22.80;;;17.70;99.90;;;;;;4974803;28;20050;-77
2023/09/27 06:22:57;;;;;;;29.75;23.33;;;18.20;99.90;;;;;;4974882;28;20100;-77
2023/09/27 06:25:29;;;;;;;32.30;25.30;;;17.80;99.90;;;;;;4960812;28;20111;-77
2023/09/27 06:27:55;;;;;;;28.33;23.48;;;;;;;;;;4982076;28;20536;-77
2023/09/27 06:30:22;;;;;;;28.00;22.85;;;17.80;99.90;;;;;;4962100;28;20049;-77
2023/09/27 06:32:48;;;;;;;28.88;23.50;;;18.30;99.90;;;;;;4976416;28;20057;-76
2023/09/27 06:35:14;;;;;;;31.10;23.63;;;18.30;99.90;;;;;;4974769;28;20035;-77
2023/09/27 06:37:44;;;;;;;27.65;23.35;;;18.00;99.90;;;;;;4976926;28;20048;-82
2023/09/27 06:40:16;;;;;;;29.83;23.73;;;18.40;99.90;;;;;;4962686;28;20042;-79
2023/09/27 06:42:46;;;;;;;26.25;23.13;;;18.20;99.90;;;;;;4979982;28;20074;-82
2023/09/27 06:45:15;;;;;;;29.98;24.80;;;18.40;99.90;;;;;;4983383;28;20063;-80
2023/09/27 06:47:44;;;;;;;32.50;24.63;;;18.20;99.90;;;;;;4982235;28;20077;-80
2023/09/27 06:50:11;;;;;;;34.00;26.38;;;18.70;99.90;;;;;;4994419;28;20053;-77
2023/09/27 06:52:39;;;;;;;32.63;23.65;;;18.80;99.90;;;;;;4994608;28;20037;-77
2023/09/27 06:55:27;;;;;;;31.77;26.52;;;18.50;99.90;;;;;;4994862;28;20223;-76
2023/09/27 06:57:52;;;;;;;26.17;22.83;;;18.80;99.90;;;;;;4996878;28;20046;-76
2023/09/27 07:00:23;;;;;;;33.20;26.52;;;19.00;99.90;;;;;;4992366;28;20060;-76
2023/09/27 07:02:49;;;;;;;32.35;25.27;;;;;;;;;;4985918;28;20489;-76
2023/09/27 07:05:16;;;;;;;33.17;26.73;;;18.80;99.90;;;;;;4972296;28;20045;-76
2023/09/27 07:07:42;;;;;;;36.35;27.20;;;;;;;;;;4989145;28;20042;-76
2023/09/27 07:10:09;;;;;;;29.00;23.45;;;19.30;99.90;;;;;;5004612;28;20042;-76
2023/09/27 07:12:37;;;;;;;31.85;26.63;;;19.10;99.90;;;;;;4993846;28;20441;-76
2023/09/27 07:15:11;;;;;;;28.60;23.88;;;19.00;99.90;;;;;;4994934;28;20041;-76
2023/09/27 07:17:40;;;;;;;34.22;25.10;;;19.10;99.90;;;;;;4997486;28;20049;-76
2023/09/27 07:20:24;;;;;;;26.63;23.05;;;19.40;99.90;;;;;;4997187;28;20482;-76
2023/09/27 07:22:50;;;;;;;;;;;19.30;99.90;;;;;;4981853;28;20116;-76
2023/09/27 07:25:18;;;;;;;28.35;23.48;;;19.40;99.90;;;;;;4997525;28;20017;-76
2023/09/27 07:27:46;;;;;;;28.33;23.17;;;19.20;99.90;;;;;;5001856;28;20116;-79
2023/09/27 07:30:12;;;;;;;28.40;21.33;;;19.60;99.90;;;;;;4987269;28;20057;-79
2023/09/27 07:32:39;;;;;;;29.33;24.33;;;19.20;99.90;;;;;;5001395;28;20042;-79
2023/09/27 07:35:09;;;;;;;33.30;24.85;;;19.60;99.90;;;;;;5001204;28;20057;-79
2023/09/27 07:37:39;;;;;;;30.75;25.77;;;19.70;99.90;;;;;;4999546;28;20056;-79
2023/09/27 07:40:11;;;;;;;30.30;25.23;;;19.50;99.90;;;;;;4998783;28;20046;-79
2023/09/27 07:42:44;;;;;;;32.20;24.25;;;19.80;99.90;;;;;;4999441;28;20105;-79
2023/09/27 07:45:21;;;;;;;28.80;24.80;;;19.70;99.90;;;;;;5000088;28;20041;-79
2023/09/27 07:47:51;;;;;;;26.83;22.42;;;19.80;99.90;;;;;;4982433;28;20124;-79
2023/09/27 07:50:19;;;;;;;28.20;23.27;;;19.90;99.90;;;;;;4998430;28;20041;-79
2023/09/27 07:52:44;;;;;;;28.05;21.80;;;20.00;99.90;;;;;;4982119;28;20038;-79
2023/09/27 07:55:12;;;;;;;28.30;23.48;;;20.20;99.90;;;;;;4982720;28;20412;-81
2023/09/27 07:57:37;;;;;;;27.17;22.67;;;20.50;99.90;;;;;;4998329;28;20092;-76
2023/09/27 08:00:10;;;;;;;28.08;22.45;;;20.60;99.90;;;;;;4996274;28;20073;-76
2023/09/27 08:02:36;;;;;;;29.88;25.67;;;20.70;99.90;;;;;;4993504;28;20387;-76
2023/09/27 08:05:09;;;;;;;31.17;25.98;;;20.50;99.90;;;;;;4980006;28;20081;-76
2023/09/27 08:07:38;;;;;;;32.03;25.25;;;20.80;99.90;;;;;;4994542;28;20125;-76
2023/09/27 08:10:06;;;;;;;37.20;26.80;;;21.10;99.90;;;;;;4996114;28;20389;-76
2023/09/27 08:12:33;;;;;;;31.65;24.38;;;20.90;99.90;;;;;;4980184;28;20041;-76
2023/09/27 08:15:00;;;;;;;25.30;20.65;;;21.20;99.90;;;;;;4995829;28;20077;-76
2023/09/27 08:17:26;;;;;;;27.60;22.23;;;21.20;99.90;;;;;;4979609;28;20050;-76
2023/09/27 08:19:52;;;;;;;26.08;21.08;;;21.10;99.90;;;;;;4995643;28;20429;-76
2023/09/27 08:22:18;;;;;;;26.63;21.42;;;21.70;99.90;;;;;;4979853;28;20065;-76
2023/09/27 08:24:43;;;;;;;30.23;23.27;;;21.40;99.90;;;;;;4979540;28;20046;-76
2023/09/27 08:27:09;;;;;;;30.10;22.80;;;21.60;99.90;;;;;;5008875;28;20045;-76
2023/09/27 08:29:35;;;;;;;29.20;22.60;;;21.60;99.90;;;;;;4983640;28;20097;-77
2023/09/27 08:32:01;;;;;;;23.58;19.75;;;21.70;99.90;;;;;;4985569;28;20041;-76
2023/09/27 08:34:27;;;;;;;28.35;21.95;;;21.60;99.90;;;;;;4994512;28;20096;-76
2023/09/27 08:36:53;;;;;;;25.38;21.23;;;22.10;99.90;;;;;;4984574;28;20039;-76
2023/09/27 08:39:19;;;;;;;31.23;21.65;;;22.30;99.90;;;;;;4985117;28;20103;-76
2023/09/27 08:41:44;;;;;;;25.45;19.83;;;22.40;99.90;;;;;;4969063;28;20033;-76
2023/09/27 08:44:11;;;;;;;29.15;23.08;;;22.40;99.90;;;;;;4974763;28;20034;-77
2023/09/27 08:46:38;;;;;;;26.38;22.98;;;22.30;99.90;;;;;;4976036;28;20168;-76
2023/09/27 08:49:04;;;;;;;30.10;21.60;;;22.80;99.90;;;;;;4991624;28;20045;-77
2023/09/27 08:51:30;;;;;;;27.92;21.95;;;22.70;99.90;;;;;;4959736;28;20042;-76
2023/09/27 08:53:56;;;;;;;26.40;18.55;;;22.50;99.90;;;;;;4999804;28;20045;-77
2023/09/27 08:56:27;;;;;;;22.58;20.10;;;23.00;99.90;;;;;;4959529;28;20038;-77
2023/09/27 08:58:53;;;;;;;27.42;18.92;;;22.60;99.90;;;;;;4975703;28;20320;-77
2023/09/27 09:01:19;;;;;;;24.98;17.52;;;23.10;99.90;;;;;;4992273;28;20090;-76
2023/09/27 09:03:46;;;;;;;28.17;19.75;;;22.70;99.90;;;;;;4959649;28;20038;-77
2023/09/27 09:06:12;;;;;;;22.25;17.75;;;22.80;99.90;;;;;;4975464;28;20038;-76
2023/09/27 09:08:46;;;;;;;29.20;20.13;;;23.20;99.90;;;;;;4978780;28;20050;-76
2023/09/27 09:11:16;;;;;;;25.65;17.85;;;23.50;99.90;;;;;;4992019;28;20046;-76
2023/09/27 09:14:06;;;;;;;23.40;16.23;;;23.30;99.90;;;;;;4975481;28;20077;-77
2023/09/27 09:16:47;;;;;;;22.80;16.60;;;23.20;99.90;;;;;;4991819;28;20035;-77
2023/09/27 09:19:22;;;;;;;20.15;15.48;;;23.50;99.90;;;;;;4991243;28;20042;-77
2023/09/27 09:22:11;;;;;;;25.00;17.70;;;23.60;99.90;;;;;;4975728;28;20529;-77
2023/09/27 09:24:41;;;;;;;20.10;15.15;;;23.50;99.90;;;;;;4992607;28;20394;-76
2023/09/27 09:27:14;;;;;;;20.50;14.70;;;23.50;99.90;;;;;;4991978;28;20117;-78
2023/09/27 09:29:43;;;;;;;;;;;23.70;99.90;;;;;;4975921;28;20081;-76
2023/09/27 09:32:09;;;;;;;21.00;12.68;;;23.70;99.90;;;;;;4991611;28;20016;-76
2023/09/27 09:34:41;;;;;;;26.08;17.50;;;23.70;99.90;;;;;;4991621;28;20173;-76
2023/09/27 09:37:18;;;;;;;21.77;16.92;;;24.00;99.90;;;;;;4991231;28;20088;-76
2023/09/27 09:39:44;;;;;;;21.50;15.32;;;23.70;99.90;;;;;;4991085;28;20383;-76
2023/09/27 09:42:10;;;;;;;21.42;14.63;;;23.80;99.90;;;;;;4991286;28;20049;-76
2023/09/27 09:44:35;;;;;;;20.92;14.13;;;23.60;99.90;;;;;;4991338;28;20394;-76
2023/09/27 09:47:11;;;;;;;17.73;13.68;;;23.50;99.90;;;;;;4996050;28;20119;-76
2023/09/27 09:49:41;;;;;;;21.23;14.82;;;23.50;99.90;;;;;;4990518;28;20572;-76
2023/09/27 09:52:12;;;;;;;23.05;13.45;;;23.30;99.90;;;;;;4957178;28;20556;-76
2023/09/27 09:54:49;;;;;;;22.85;13.38;;;23.50;99.90;;;;;;4958530;28;20418;-77
2023/09/27 09:57:15;;;;;;;20.77;14.70;;;23.50;99.90;;;;;;4973317;28;20072;-77
2023/09/27 10:00:25;;;;;;;21.80;14.85;;;23.40;99.90;;;;;;4974640;28;20046;-76
2023/09/27 10:03:09;;;;;;;22.55;15.63;;;23.80;99.90;;;;;;4975130;28;20042;-77
2023/09/27 10:05:39;;;;;;;30.40;16.20;;;23.60;99.90;;;;;;4958663;28;20049;-77
2023/09/27 10:08:05;;;;;;;20.75;14.27;;;23.60;99.90;;;;;;4974658;28;20125;-77
2023/09/27 10:10:32;;;;;;;29.40;16.77;;;23.30;99.90;;;;;;4974612;28;20097;-77
2023/09/27 10:12:59;;;;;;;19.38;14.05;;;23.60;99.90;;;;;;4974807;28;20078;-77
2023/09/27 10:15:25;;;;;;;21.63;15.20;;;23.50;99.90;;;;;;4958504;28;20046;-77
2023/09/27 10:17:51;;;;;;;20.83;14.45;;;23.10;99.90;;;;;;4974675;28;20068;-77
2023/09/27 10:20:22;;;;;;;20.17;15.60;;;22.90;99.90;;;;;;4958508;28;20038;-77
2023/09/27 10:22:48;;;;;;;23.05;15.65;;;24.00;99.90;;;;;;4958759;28;20030;-77
2023/09/27 10:25:23;;;;;;;23.25;15.80;;;24.00;99.90;;;;;;4974682;28;20044;-77
2023/09/27 10:28:01;;;;;;;29.88;17.30;;;23.10;99.90;;;;;;4958471;28;20046;-77
2023/09/27 10:30:48;;;;;;;29.10;17.27;;;23.40;99.90;;;;;;4958584;28;20383;-77
2023/09/27 10:33:16;;;;;;;28.02;15.77;;;23.20;99.90;;;;;;4962693;28;20064;-77
2023/09/27 10:36:08;;;;;;;23.65;15.52;;;23.50;99.90;;;;;;4978377;28;20525;-77
2023/09/27 10:38:41;;;;;;;20.45;14.60;;;23.40;99.90;;;;;;4955994;28;20057;-77
2023/09/27 10:41:07;;;;;;;23.52;12.98;;;23.40;99.90;;;;;;4962427;28;20046;-77
2023/09/27 10:43:35;;;;;;;18.42;13.57;;;23.20;99.90;;;;;;4977797;28;20498;-77
2023/09/27 10:46:04;;;;;;;19.85;11.68;;;23.40;99.90;;;;;;4962383;28;20066;-77
2023/09/27 10:48:37;;;;;;;16.33;10.90;;;23.40;99.90;;;;;;4994465;28;20068;-77
2023/09/27 10:51:03;;;;;;;19.70;12.07;;;23.60;99.90;;;;;;4978164;28;20045;-76
2023/09/27 10:53:32;;;;;;;14.80;10.68;;;23.60;99.90;;;;;;4978109;28;20034;-77
2023/09/27 10:55:58;;;;;;;19.15;10.73;;;24.30;99.90;;;;;;4978283;28;20422;-77
2023/09/27 10:58:23;;;;;;;20.98;10.55;;;23.90;99.90;;;;;;4962186;28;20038;-77
2023/09/27 11:01:01;;;;;;;16.05;10.32;;;23.80;99.90;;;;;;4977829;28;20034;-77
2023/09/27 11:03:30;;;;;;;16.40;10.27;;;23.80;99.90;;;;;;4977985;28;20048;-77
2023/09/27 11:06:10;;;;;;;19.05;9.55;;;23.80;99.90;;;;;;4978134;28;20073;-77
2023/09/27 11:08:36;;;;;;;15.85;10.40;;;23.60;99.90;;;;;;4961543;28;20044;-77
2023/09/27 11:11:01;;;;;;;15.32;8.88;;;24.40;99.90;;;;;;4977890;28;20117;-77
2023/09/27 11:13:29;;;;;;;16.05;10.18;;;24.20;99.90;;;;;;4977943;28;20569;-77
2023/09/27 11:16:06;;;;;;;15.80;10.05;;;24.10;99.90;;;;;;4978247;28;20130;-77
2023/09/27 11:18:42;;;;;;;13.27;8.85;;;24.20;99.90;;;;;;4977970;28;20042;-77
2023/09/27 11:21:08;;;;;;;15.18;8.60;;;23.80;99.90;;;;;;4977834;28;20042;-77
2023/09/27 11:23:53;;;;;;;17.05;9.45;;;24.00;99.90;;;;;;4977747;28;20062;-77
2023/09/27 11:26:19;;;;;;;15.15;8.90;;;24.60;99.90;;;;;;4977825;28;20101;-77
2023/09/27 11:29:00;;;;;;;12.75;6.85;;;24.30;99.90;;;;;;4977354;28;20085;-77
2023/09/27 11:31:32;;;;;;;11.65;6.47;;;24.10;99.90;;;;;;4977486;28;20054;-77
2023/09/27 11:34:17;;;;;;;13.57;7.63;;;24.60;99.90;;;;;;4977457;28;20042;-77
2023/09/27 11:36:45;;;;;;;13.77;7.10;;;24.10;99.90;;;;;;4977375;28;20049;-77
2023/09/27 11:39:13;;;;;;;13.20;6.70;;;24.20;99.90;;;;;;4977247;28;20116;-77
2023/09/27 11:41:39;;;;;;;13.00;6.80;;;24.10;99.90;;;;;;4977451;28;20035;-77
2023/09/27 11:44:17;;;;;;;12.90;6.72;;;24.20;99.90;;;;;;4976466;28;20466;-77
2023/09/27 11:46:44;;;;;;;8.85;5.47;;;24.20;99.90;;;;;;4977247;28;20042;-77
2023/09/27 11:49:10;;;;;;;12.80;5.97;;;23.80;99.90;;;;;;4960804;28;20042;-77
2023/09/27 11:51:36;;;;;;;8.65;5.03;;;24.40;99.90;;;;;;4977140;28;20053;-77
2023/09/27 11:54:04;;;;;;;9.57;5.28;;;24.80;99.90;;;;;;4977114;28;20053;-77
2023/09/27 11:56:30;;;;;;;11.50;4.85;;;25.00;99.90;;;;;;4976872;28;20097;-76
2023/09/27 11:58:56;;;;;;;13.88;4.90;;;25.50;99.90;;;;;;4977010;28;20081;-77
2023/09/27 12:01:21;;;;;;;11.48;4.85;;;25.80;99.90;;;;;;4977649;28;20077;-77
2023/09/27 12:03:47;;;;;;;8.65;4.80;;;25.80;99.90;;;;;;4978372;28;20045;-77
2023/09/27 12:06:13;;;;;;;8.77;4.43;;;25.80;99.90;;;;;;4977481;28;20498;-77
2023/09/27 12:08:38;;;;;;;8.20;4.03;;;25.90;99.90;;;;;;4960599;28;20042;-76
2023/09/27 12:11:04;;;;;;;7.13;4.55;;;25.70;99.90;;;;;;4960846;28;20042;-77
2023/09/27 12:13:30;;;;;;;6.53;4.25;;;25.70;99.90;;;;;;4977053;28;20137;-77
2023/09/27 12:15:55;;;;;;;8.35;4.03;;;25.60;99.90;;;;;;4976846;28;20053;-77
2023/09/27 12:18:22;;;;;;;6.18;4.63;;;25.60;99.90;;;;;;4976894;28;20049;-77
2023/09/27 12:20:47;;;;;;;7.28;3.60;;;25.60;99.90;;;;;;4976559;28;20050;-77
2023/09/27 12:23:13;;;;;;;7.38;4.32;;;25.70;99.90;;;;;;4976603;28;20502;-77
2023/09/27 12:25:39;;;;;;;7.03;3.75;;;25.60;99.90;;;;;;4976430;28;20042;-77
2023/09/27 12:28:05;;;;;;;5.55;3.55;;;25.30;99.90;;;;;;4960741;28;20053;-77
2023/09/27 12:30:30;;;;;;;7.78;3.83;;;25.20;99.90;;;;;;4960192;28;20038;-77
2023/09/27 12:32:56;;;;;;;7.68;4.18;;;25.40;99.90;;;;;;4976657;28;20410;-77
2023/09/27 12:35:22;;;;;;;4.57;3.17;;;25.80;99.90;;;;;;4960283;28;20132;-77
2023/09/27 12:37:48;;;;;;;5.80;3.53;;;25.80;99.90;;;;;;4976142;28;20078;-77
2023/09/27 12:40:14;;;;;;;9.23;3.90;;;25.80;99.90;;;;;;4975899;28;20089;-77
2023/09/27 12:42:39;;;;;;;6.88;4.25;;;25.70;99.90;;;;;;4960292;28;20414;-77